sensor_id;sensor_type;location;lat;lon;timestamp;temperature;humidity
30001;DHT22;16845;48.670;9.000;2023-04-01T00:00:37;7.50;99.90
30001;DHT22;16845;48.670;9.000;2023-04-01T00:03:05;7.50;99.90
30001;DHT22;16845;48.670;9.000;2023-04-01T00:05:33;7.50;99.90
30001;DHT22;16845;48.670;9.000;2023-04-01T00:08:03;7.50;99.90
30001;DHT22;16845;48.670;9.000;2023-04-01T00:10:31;7.50;99.90
30001;DHT22;16845;48.670;9.000;2023-04-01T00:13:00;7.60;99.90
30001;DHT22;16845;48.670;9.000;2023-04-01T00:15:28;7.50;99.90
30001;DHT22;16845;48.670;9.000;2023-04-01T00:17:57;7.50;99.90
30001;DHT22;16845;48.670;9.000;2023-04-01T00:20:25;7.50;99.90
30001;DHT22;16845;48.670;9.000;2023-04-01T00:22:53;7.50;99.90
30001;DHT22;16845;48.670;9.000;2023-04-01T00:25:23;7.50;99.90
30001;DHT22;16845;48.670;9.000;2023-04-01T00:27:51;7.60;99.90
30001;DHT22;16845;48.670;9.000;2023-04-01T00:30:19;7.50;99.90
30001;DHT22;16845;48.670;9.000;2023-04-01T00:32:51;7.50;99.90
30001;DHT22;16845;48.670;9.000;2023-04-01T00:35:19;7.50;99.90
30001;DHT22;16845;48.670;9.000;2023-04-01T00:37:47;7.60;99.90
30001;DHT22;16845;48.670;9.000;2023-04-01T00:40:26;7.60;99.90
30001;DHT22;16845;48.670;9.000;2023-04-01T00:42:55;7.60;99.90
30001;DHT22;16845;48.670;9.000;2023-04-01T00:45:34;7.50;99.90
30001;DHT22;16845;48.670;9.000;2023-04-01T00:48:07;7.50;99.90
30001;DHT22;16845;48.670;9.000;2023-04-01T00:50:37;7.50;99.90
30001;DHT22;16845;48.670;9.000;2023-04-01T00:53:07;7.50;99.90
30001;DHT22;16845;48.670;9.000;2023-04-01T00:55:40;7.60;99.90
30001;DHT22;16845;48.670;9.000;2023-04-01T00:58:13;7.60;99.90
30001;DHT22;16845;48.670;9.000;2023-04-01T01:00:42;7.50;99.90
30001;DHT22;16845;48.670;9.000;2023-04-01T01:03:10;7.50;99.90
30001;DHT22;16845;48.670;9.000;2023-04-01T01:05:54;7.40;99.90
30001;DHT22;16845;48.670;9.000;2023-04-01T01:08:34;7.40;99.90
30001;DHT22;16845;48.670;9.000;2023-04-01T01:11:10;7.50;99.90
30001;DHT22;16845;48.670;9.000;2023-04-01T01:13:45;7.50;99.90
30001;DHT22;16845;48.670;9.000;2023-04-01T01:16:20;7.50;99.90
30001;DHT22;16845;48.670;9.000;2023-04-01T01:18:53;7.50;99.90
30001;DHT22;16845;48.670;9.000;2023-04-01T01:21:32;7.40;99.90
30001;DHT22;16845;48.670;9.000;2023-04-01T01:24:29;7.40;99.90
30001;DHT22;16845;48.670;9.000;2023-04-01T01:27:08;7.40;99.90
30001;DHT22;16845;48.670;9.000;2023-04-01T01:32:55;7.40;99.90
30001;DHT22;16845;48.670;9.000;2023-04-01T01:35:30;7.50;99.90
30001;DHT22;16845;48.670;9.000;2023-04-01T01:38:02;7.50;99.90
30001;DHT22;16845;48.670;9.000;2023-04-01T01:40:32;7.50;99.90
30001;DHT22;16845;48.670;9.000;2023-04-01T01:43:05;7.50;99.90
30001;DHT22;16845;48.670;9.000;2023-04-01T01:45:35;7.40;99.90
30001;DHT22;16845;48.670;9.000;2023-04-01T01:48:06;7.40;99.90
30001;DHT22;16845;48.670;9.000;2023-04-01T01:50:38;7.40;99.90
30001;DHT22;16845;48.670;9.000;2023-04-01T01:53:09;7.30;99.90
30001;DHT22;16845;48.670;9.000;2023-04-01T01:55:38;7.30;99.90
30001;DHT22;16845;48.670;9.000;2023-04-01T01:58:11;7.30;99.90
30001;DHT22;16845;48.670;9.000;2023-04-01T02:00:44;7.30;99.90
30001;DHT22;16845;48.670;9.000;2023-04-01T02:03:14;7.30;99.90
30001;DHT22;16845;48.670;9.000;2023-04-01T02:05:44;7.30;99.90
30001;DHT22;16845;48.670;9.000;2023-04-01T02:08:14;7.30;99.90
30001;DHT22;16845;48.670;9.000;2023-04-01T02:10:48;7.30;99.90
30001;DHT22;16845;48.670;9.000;2023-04-01T02:13:21;7.20;99.90
30001;DHT22;16845;48.670;9.000;2023-04-01T02:15:56;7.20;99.90
30001;DHT22;16845;48.670;9.000;2023-04-01T02:18:28;7.30;99.90
30001;DHT22;16845;48.670;9.000;2023-04-01T02:20:59;7.30;99.90
30001;DHT22;16845;48.670;9.000;2023-04-01T02:23:28;7.20;99.90
30001;DHT22;16845;48.670;9.000;2023-04-01T02:25:56;7.20;99.90
30001;DHT22;16845;48.670;9.000;2023-04-01T02:28:24;7.20;99.90
30001;DHT22;16845;48.670;9.000;2023-04-01T02:30:53;7.10;99.90
30001;DHT22;16845;48.670;9.000;2023-04-01T02:33:21;7.10;99.90
30001;DHT22;16845;48.670;9.000;2023-04-01T02:35:49;7.10;99.90
30001;DHT22;16845;48.670;9.000;2023-04-01T02:38:19;7.10;99.90
30001;DHT22;16845;48.670;9.000;2023-04-01T02:40:49;7.00;99.90
30001;DHT22;16845;48.670;9.000;2023-04-01T02:43:17;7.00;99.90
30001;DHT22;16845;48.670;9.000;2023-04-01T02:45:46;6.90;99.90
30001;DHT22;16845;48.670;9.000;2023-04-01T02:48:14;6.90;99.90
30001;DHT22;16845;48.670;9.000;2023-04-01T02:50:42;6.80;99.90
30001;DHT22;16845;48.670;9.000;2023-04-01T02:53:09;6.80;99.90
30001;DHT22;16845;48.670;9.000;2023-04-01T02:55:39;6.80;99.90
30001;DHT22;16845;48.670;9.000;2023-04-01T02:58:07;6.80;99.90
30001;DHT22;16845;48.670;9.000;2023-04-01T03:00:36;6.90;99.90
30001;DHT22;16845;48.670;9.000;2023-04-01T03:03:04;6.90;99.90
30001;DHT22;16845;48.670;9.000;2023-04-01T03:05:32;6.80;99.90
30001;DHT22;16845;48.670;9.000;2023-04-01T03:08:01;6.80;99.90
30001;DHT22;16845;48.670;9.000;2023-04-01T03:10:28;6.90;99.90
30001;DHT22;16845;48.670;9.000;2023-04-01T03:12:58;6.90;99.90
30001;DHT22;16845;48.670;9.000;2023-04-01T03:15:26;6.90;99.90
30001;DHT22;16845;48.670;9.000;2023-04-01T03:17:53;6.90;99.90
30001;DHT22;16845;48.670;9.000;2023-04-01T03:20:21;6.80;99.90
30001;DHT22;16845;48.670;9.000;2023-04-01T03:22:49;6.90;99.90
30001;DHT22;16845;48.670;9.000;2023-04-01T03:25:18;6.90;99.90
30001;DHT22;16845;48.670;9.000;2023-04-01T03:27:46;6.90;99.90
30001;DHT22;16845;48.670;9.000;2023-04-01T03:30:15;6.90;99.90
30001;DHT22;16845;48.670;9.000;2023-04-01T03:32:43;6.90;99.90
30001;DHT22;16845;48.670;9.000;2023-04-01T03:35:11;6.80;99.90
30001;DHT22;16845;48.670;9.000;2023-04-01T03:37:39;6.80;99.90
30001;DHT22;16845;48.670;9.000;2023-04-01T03:40:08;6.90;99.90
30001;DHT22;16845;48.670;9.000;2023-04-01T03:42:36;6.80;99.90
30001;DHT22;16845;48.670;9.000;2023-04-01T03:45:05;6.90;99.90
30001;DHT22;16845;48.670;9.000;2023-04-01T03:47:34;6.90;99.90
30001;DHT22;16845;48.670;9.000;2023-04-01T03:50:03;6.90;99.90
30001;DHT22;16845;48.670;9.000;2023-04-01T03:52:31;6.90;99.90
30001;DHT22;16845;48.670;9.000;2023-04-01T03:54:59;6.90;99.90
30001;DHT22;16845;48.670;9.000;2023-04-01T03:57:27;7.00;99.90
30001;DHT22;16845;48.670;9.000;2023-04-01T03:59:55;6.90;99.90
30001;DHT22;16845;48.670;9.000;2023-04-01T04:02:23;6.90;99.90
30001;DHT22;16845;48.670;9.000;2023-04-01T04:04:52;6.90;99.90
30001;DHT22;16845;48.670;9.000;2023-04-01T04:07:20;6.80;99.90
30001;DHT22;16845;48.670;9.000;2023-04-01T04:09:48;6.60;99.90
30001;DHT22;16845;48.670;9.000;2023-04-01T04:12:16;6.60;99.90
30001;DHT22;16845;48.670;9.000;2023-04-01T04:14:43;6.60;99.90
30001;DHT22;16845;48.670;9.000;2023-04-01T04:17:12;6.60;99.90
30001;DHT22;16845;48.670;9.000;2023-04-01T04:19:43;6.50;99.90
30001;DHT22;16845;48.670;9.000;2023-04-01T04:22:12;6.50;99.90
30001;DHT22;16845;48.670;9.000;2023-04-01T04:24:40;6.40;99.90
30001;DHT22;16845;48.670;9.000;2023-04-01T04:27:08;6.40;99.90
30001;DHT22;16845;48.670;9.000;2023-04-01T04:29:36;6.30;99.90
30001;DHT22;16845;48.670;9.000;2023-04-01T04:32:04;6.30;99.90
30001;DHT22;16845;48.670;9.000;2023-04-01T04:34:32;6.30;99.90
30001;DHT22;16845;48.670;9.000;2023-04-01T04:37:00;6.30;99.90
30001;DHT22;16845;48.670;9.000;2023-04-01T04:39:29;6.30;99.90
30001;DHT22;16845;48.670;9.000;2023-04-01T04:41:57;6.40;99.90
30001;DHT22;16845;48.670;9.000;2023-04-01T04:44:25;6.50;99.90
30001;DHT22;16845;48.670;9.000;2023-04-01T04:46:53;6.50;99.90
30001;DHT22;16845;48.670;9.000;2023-04-01T04:49:24;6.50;99.90
30001;DHT22;16845;48.670;9.000;2023-04-01T04:51:52;6.70;99.90
30001;DHT22;16845;48.670;9.000;2023-04-01T04:54:20;6.70;99.90
30001;DHT22;16845;48.670;9.000;2023-04-01T04:56:51;6.70;99.90
30001;DHT22;16845;48.670;9.000;2023-04-01T04:59:19;6.70;99.90
30001;DHT22;16845;48.670;9.000;2023-04-01T05:01:47;6.80;99.90
30001;DHT22;16845;48.670;9.000;2023-04-01T05:04:15;6.80;99.90
30001;DHT22;16845;48.670;9.000;2023-04-01T05:06:43;6.70;99.90
30001;DHT22;16845;48.670;9.000;2023-04-01T05:09:11;6.80;99.90
30001;DHT22;16845;48.670;9.000;2023-04-01T05:11:39;6.80;99.90
30001;DHT22;16845;48.670;9.000;2023-04-01T05:14:13;6.80;99.90
30001;DHT22;16845;48.670;9.000;2023-04-01T05:16:41;6.90;99.90
30001;DHT22;16845;48.670;9.000;2023-04-01T05:19:09;6.90;99.90
30001;DHT22;16845;48.670;9.000;2023-04-01T05:21:37;7.00;99.90
30001;DHT22;16845;48.670;9.000;2023-04-01T05:24:07;7.00;99.90
30001;DHT22;16845;48.670;9.000;2023-04-01T05:26:35;7.00;99.90
30001;DHT22;16845;48.670;9.000;2023-04-01T05:29:03;7.10;99.90
30001;DHT22;16845;48.670;9.000;2023-04-01T05:31:33;7.20;99.90
30001;DHT22;16845;48.670;9.000;2023-04-01T05:34:01;7.20;99.90
30001;DHT22;16845;48.670;9.000;2023-04-01T05:36:29;7.20;99.90
30001;DHT22;16845;48.670;9.000;2023-04-01T05:38:57;7.20;99.90
30001;DHT22;16845;48.670;9.000;2023-04-01T05:41:24;7.20;99.90
30001;DHT22;16845;48.670;9.000;2023-04-01T05:43:52;7.20;99.90
30001;DHT22;16845;48.670;9.000;2023-04-01T05:46:20;7.20;99.90
30001;DHT22;16845;48.670;9.000;2023-04-01T05:48:50;7.20;99.90
30001;DHT22;16845;48.670;9.000;2023-04-01T05:51:17;7.20;99.90
30001;DHT22;16845;48.670;9.000;2023-04-01T05:53:45;7.30;99.90
30001;DHT22;16845;48.670;9.000;2023-04-01T05:56:13;7.30;99.90
30001;DHT22;16845;48.670;9.000;2023-04-01T05:58:42;7.40;99.90
30001;DHT22;16845;48.670;9.000;2023-04-01T06:01:11;7.50;99.90
30001;DHT22;16845;48.670;9.000;2023-04-01T06:03:42;7.60;99.90
30001;DHT22;16845;48.670;9.000;2023-04-01T06:06:13;7.70;99.90
30001;DHT22;16845;48.670;9.000;2023-04-01T06:08:42;7.70;99.90
30001;DHT22;16845;48.670;9.000;2023-04-01T06:11:19;7.80;99.90
30001;DHT22;16845;48.670;9.000;2023-04-01T06:14:07;7.80;99.90
30001;DHT22;16845;48.670;9.000;2023-04-01T06:16:46;7.80;99.90
30001;DHT22;16845;48.670;9.000;2023-04-01T06:19:27;7.90;99.90
30001;DHT22;16845;48.670;9.000;2023-04-01T06:22:12;7.80;99.90
30001;DHT22;16845;48.670;9.000;2023-04-01T06:24:59;7.90;99.90
30001;DHT22;16845;48.670;9.000;2023-04-01T06:27:46;7.90;99.90
30001;DHT22;16845;48.670;9.000;2023-04-01T06:30:34;7.90;99.90
30001;DHT22;16845;48.670;9.000;2023-04-01T06:39:06;7.80;99.90
30001;DHT22;16845;48.670;9.000;2023-04-01T06:41:55;7.80;99.90
30001;DHT22;16845;48.670;9.000;2023-04-01T06:44:33;7.80;99.90
30001;DHT22;16845;48.670;9.000;2023-04-01T06:47:10;7.80;99.90
30001;DHT22;16845;48.670;9.000;2023-04-01T06:49:48;7.80;99.90
30001;DHT22;16845;48.670;9.000;2023-04-01T06:52:23;7.70;99.90
30001;DHT22;16845;48.670;9.000;2023-04-01T06:55:00;7.80;99.90
30001;DHT22;16845;48.670;9.000;2023-04-01T06:57:32;7.90;99.90
30001;DHT22;16845;48.670;9.000;2023-04-01T07:00:05;7.90;99.90
30001;DHT22;16845;48.670;9.000;2023-04-01T07:02:43;7.90;99.90
30001;DHT22;16845;48.670;9.000;2023-04-01T07:05:15;7.90;99.90
30001;DHT22;16845;48.670;9.000;2023-04-01T07:07:45;8.00;99.90
30001;DHT22;16845;48.670;9.000;2023-04-01T07:10:19;8.10;99.90
30001;DHT22;16845;48.670;9.000;2023-04-01T07:12:51;8.10;99.90
30001;DHT22;16845;48.670;9.000;2023-04-01T07:15:22;8.20;99.90
30001;DHT22;16845;48.670;9.000;2023-04-01T07:17:54;8.10;99.90
30001;DHT22;16845;48.670;9.000;2023-04-01T07:20:26;8.10;99.90
30001;DHT22;16845;48.670;9.000;2023-04-01T07:22:58;8.10;99.90
30001;DHT22;16845;48.670;9.000;2023-04-01T07:25:30;8.10;99.90
30001;DHT22;16845;48.670;9.000;2023-04-01T07:28:02;8.10;99.90
30001;DHT22;16845;48.670;9.000;2023-04-01T07:30:40;8.10;99.90
30001;DHT22;16845;48.670;9.000;2023-04-01T07:33:14;8.10;99.90
30001;DHT22;16845;48.670;9.000;2023-04-01T07:35:47;8.10;99.90
30001;DHT22;16845;48.670;9.000;2023-04-01T07:38:25;8.20;99.90
30001;DHT22;16845;48.670;9.000;2023-04-01T07:41:03;8.30;99.90
30001;DHT22;16845;48.670;9.000;2023-04-01T07:43:44;8.30;99.90
30001;DHT22;16845;48.670;9.000;2023-04-01T07:46:22;8.30;99.90
30001;DHT22;16845;48.670;9.000;2023-04-01T07:48:53;8.30;99.90
30001;DHT22;16845;48.670;9.000;2023-04-01T07:51:28;8.30;99.90
30001;DHT22;16845;48.670;9.000;2023-04-01T07:54:04;8.50;99.90
30001;DHT22;16845;48.670;9.000;2023-04-01T07:56:40;8.50;99.90
30001;DHT22;16845;48.670;9.000;2023-04-01T07:59:14;8.50;99.90
30001;DHT22;16845;48.670;9.000;2023-04-01T08:01:48;8.40;99.90
30001;DHT22;16845;48.670;9.000;2023-04-01T08:04:25;8.50;99.90
30001;DHT22;16845;48.670;9.000;2023-04-01T08:07:02;8.40;99.90
30001;DHT22;16845;48.670;9.000;2023-04-01T08:09:40;8.30;99.90
30001;DHT22;16845;48.670;9.000;2023-04-01T08:12:21;8.20;99.90
30001;DHT22;16845;48.670;9.000;2023-04-01T08:15:01;8.20;99.90
30001;DHT22;16845;48.670;9.000;2023-04-01T08:17:36;8.20;99.90
30001;DHT22;16845;48.670;9.000;2023-04-01T08:20:23;8.30;99.90
30001;DHT22;16845;48.670;9.000;2023-04-01T08:22:58;8.20;99.90
30001;DHT22;16845;48.670;9.000;2023-04-01T08:25:29;8.30;99.90
30001;DHT22;16845;48.670;9.000;2023-04-01T08:28:04;8.20;99.90
30001;DHT22;16845;48.670;9.000;2023-04-01T08:30:40;8.20;99.90
30001;DHT22;16845;48.670;9.000;2023-04-01T08:33:13;8.20;99.90
30001;DHT22;16845;48.670;9.000;2023-04-01T08:35:46;8.10;99.90
30001;DHT22;16845;48.670;9.000;2023-04-01T08:38:19;8.00;99.90
30001;DHT22;16845;48.670;9.000;2023-04-01T08:40:57;7.80;99.90
30001;DHT22;16845;48.670;9.000;2023-04-01T08:49:47;7.70;99.90
30001;DHT22;16845;48.670;9.000;2023-04-01T08:52:35;7.60;99.90
30001;DHT22;16845;48.670;9.000;2023-04-01T08:55:26;7.70;99.90
30001;DHT22;16845;48.670;9.000;2023-04-01T08:58:25;7.80;99.90
30001;DHT22;16845;48.670;9.000;2023-04-01T09:01:12;7.90;99.90
30001;DHT22;16845;48.670;9.000;2023-04-01T09:03:52;8.30;99.90
30001;DHT22;16845;48.670;9.000;2023-04-01T09:06:37;8.70;99.90
30001;DHT22;16845;48.670;9.000;2023-04-01T09:12:42;9.30;99.90
30001;DHT22;16845;48.670;9.000;2023-04-01T09:15:29;9.90;99.90
30001;DHT22;16845;48.670;9.000;2023-04-01T09:18:15;11.00;99.90
30001;DHT22;16845;48.670;9.000;2023-04-01T09:21:24;11.40;99.90
30001;DHT22;16845;48.670;9.000;2023-04-01T09:24:25;11.50;99.90
30001;DHT22;16845;48.670;9.000;2023-04-01T09:27:10;11.30;99.90
30001;DHT22;16845;48.670;9.000;2023-04-01T09:29:56;11.10;99.90
30001;DHT22;16845;48.670;9.000;2023-04-01T09:32:56;10.80;99.90
30001;DHT22;16845;48.670;9.000;2023-04-01T09:35:38;10.60;99.90
30001;DHT22;16845;48.670;9.000;2023-04-01T09:38:20;10.10;99.90
30001;DHT22;16845;48.670;9.000;2023-04-01T09:40:55;9.60;99.90
30001;DHT22;16845;48.670;9.000;2023-04-01T09:43:28;9.40;99.90
30001;DHT22;16845;48.670;9.000;2023-04-01T09:46:08;9.30;99.90
30001;DHT22;16845;48.670;9.000;2023-04-01T09:51:51;9.00;99.90
30001;DHT22;16845;48.670;9.000;2023-04-01T09:54:31;8.90;99.90
30001;DHT22;16845;48.670;9.000;2023-04-01T09:57:15;8.90;99.90
30001;DHT22;16845;48.670;9.000;2023-04-01T10:03:39;8.70;99.90
30001;DHT22;16845;48.670;9.000;2023-04-01T10:06:53;8.60;99.90
30001;DHT22;16845;48.670;9.000;2023-04-01T10:27:55;9.10;99.90
30001;DHT22;16845;48.670;9.000;2023-04-01T10:30:57;9.60;99.90
30001;DHT22;16845;48.670;9.000;2023-04-01T10:36:56;10.20;99.90
30001;DHT22;16845;48.670;9.000;2023-04-01T10:39:53;10.60;99.90
30001;DHT22;16845;48.670;9.000;2023-04-01T10:42:45;11.20;99.90
30001;DHT22;16845;48.670;9.000;2023-04-01T10:45:49;12.00;99.90
30001;DHT22;16845;48.670;9.000;2023-04-01T10:54:43;13.70;99.90
30001;DHT22;16845;48.670;9.000;2023-04-01T10:57:42;13.90;99.90
30001;DHT22;16845;48.670;9.000;2023-04-01T11:00:45;13.60;99.90
30001;DHT22;16845;48.670;9.000;2023-04-01T11:03:46;12.80;99.90
30001;DHT22;16845;48.670;9.000;2023-04-01T11:06:48;12.30;99.90
30001;DHT22;16845;48.670;9.000;2023-04-01T11:09:50;12.40;99.90
30001;DHT22;16845;48.670;9.000;2023-04-01T11:13:02;12.30;99.90
30001;DHT22;16845;48.670;9.000;2023-04-01T11:15:47;12.40;99.90
30001;DHT22;16845;48.670;9.000;2023-04-01T11:18:58;12.60;99.90
30001;DHT22;16845;48.670;9.000;2023-04-01T11:21:49;12.40;99.90
30001;DHT22;16845;48.670;9.000;2023-04-01T11:24:46;12.00;99.90
30001;DHT22;16845;48.670;9.000;2023-04-01T11:27:29;11.90;99.90
30001;DHT22;16845;48.670;9.000;2023-04-01T11:30:08;12.10;99.90
30001;DHT22;16845;48.670;9.000;2023-04-01T11:32:50;12.00;99.90
30001;DHT22;16845;48.670;9.000;2023-04-01T11:38:38;12.30;99.90
30001;DHT22;16845;48.670;9.000;2023-04-01T11:41:19;12.40;99.90
30001;DHT22;16845;48.670;9.000;2023-04-01T11:44:00;12.20;99.90
30001;DHT22;16845;48.670;9.000;2023-04-01T11:46:39;12.10;99.90
30001;DHT22;16845;48.670;9.000;2023-04-01T11:49:28;12.00;99.90
30001;DHT22;16845;48.670;9.000;2023-04-01T11:52:14;12.00;99.90
30001;DHT22;16845;48.670;9.000;2023-04-01T11:55:02;11.80;99.90
30001;DHT22;16845;48.670;9.000;2023-04-01T11:57:46;12.10;99.90
30001;DHT22;16845;48.670;9.000;2023-04-01T12:00:39;12.00;99.90
30001;DHT22;16845;48.670;9.000;2023-04-01T12:03:26;12.10;99.90
30001;DHT22;16845;48.670;9.000;2023-04-01T12:06:04;12.20;99.90
30001;DHT22;16845;48.670;9.000;2023-04-01T12:08:44;12.30;99.90
30001;DHT22;16845;48.670;9.000;2023-04-01T12:11:15;12.40;99.90
30001;DHT22;16845;48.670;9.000;2023-04-01T12:13:50;12.20;99.90
30001;DHT22;16845;48.670;9.000;2023-04-01T12:16:43;12.00;99.90
30001;DHT22;16845;48.670;9.000;2023-04-01T12:19:23;11.70;99.90
30001;DHT22;16845;48.670;9.000;2023-04-01T12:22:06;11.70;99.90
30001;DHT22;16845;48.670;9.000;2023-04-01T12:24:56;11.30;99.90
30001;DHT22;16845;48.670;9.000;2023-04-01T12:27:45;10.80;99.90
30001;DHT22;16845;48.670;9.000;2023-04-01T12:30:49;10.30;99.90
30001;DHT22;16845;48.670;9.000;2023-04-01T12:36:42;9.50;99.90
30001;DHT22;16845;48.670;9.000;2023-04-01T12:42:29;9.70;99.90
30001;DHT22;16845;48.670;9.000;2023-04-01T12:45:17;10.30;99.90
30001;DHT22;16845;48.670;9.000;2023-04-01T12:48:23;10.60;99.90
30001;DHT22;16845;48.670;9.000;2023-04-01T12:51:14;11.00;99.90
30001;DHT22;16845;48.670;9.000;2023-04-01T12:54:08;11.30;99.90
30001;DHT22;16845;48.670;9.000;2023-04-01T12:56:47;11.30;99.90
30001;DHT22;16845;48.670;9.000;2023-04-01T12:59:38;11.50;99.90
30001;DHT22;16845;48.670;9.000;2023-04-01T13:02:15;11.80;99.90
30001;DHT22;16845;48.670;9.000;2023-04-01T13:05:14;12.00;99.90
30001;DHT22;16845;48.670;9.000;2023-04-01T13:08:10;11.90;99.90
30001;DHT22;16845;48.670;9.000;2023-04-01T13:10:59;12.10;99.90
30001;DHT22;16845;48.670;9.000;2023-04-01T13:17:00;11.80;99.90
30001;DHT22;16845;48.670;9.000;2023-04-01T13:19:35;12.00;99.90
30001;DHT22;16845;48.670;9.000;2023-04-01T13:22:10;11.90;99.90
30001;DHT22;16845;48.670;9.000;2023-04-01T13:24:43;12.10;99.90
30001;DHT22;16845;48.670;9.000;2023-04-01T13:27:18;11.90;99.90
30001;DHT22;16845;48.670;9.000;2023-04-01T13:30:00;11.70;99.90
30001;DHT22;16845;48.670;9.000;2023-04-01T13:32:34;11.50;99.90
30001;DHT22;16845;48.670;9.000;2023-04-01T13:35:25;11.30;99.90
30001;DHT22;16845;48.670;9.000;2023-04-01T13:38:12;11.30;99.90
30001;DHT22;16845;48.670;9.000;2023-04-01T13:40:49;11.40;99.90
30001;DHT22;16845;48.670;9.000;2023-04-01T13:43:34;11.60;99.90
30001;DHT22;16845;48.670;9.000;2023-04-01T13:46:23;11.80;99.90
30001;DHT22;16845;48.670;9.000;2023-04-01T13:49:15;11.40;99.90
30001;DHT22;16845;48.670;9.000;2023-04-01T13:52:08;11.20;99.90
30001;DHT22;16845;48.670;9.000;2023-04-01T13:54:51;11.10;99.90
30001;DHT22;16845;48.670;9.000;2023-04-01T13:57:36;11.20;99.90
30001;DHT22;16845;48.670;9.000;2023-04-01T14:00:27;11.30;99.90
30001;DHT22;16845;48.670;9.000;2023-04-01T14:03:15;11.20;99.90
30001;DHT22;16845;48.670;9.000;2023-04-01T14:11:44;10.90;99.90
30001;DHT22;16845;48.670;9.000;2023-04-01T14:14:18;10.70;99.90
30001;DHT22;16845;48.670;9.000;2023-04-01T14:17:08;10.70;99.90
30001;DHT22;16845;48.670;9.000;2023-04-01T14:19:46;10.60;99.90
30001;DHT22;16845;48.670;9.000;2023-04-01T14:22:25;10.40;99.90
30001;DHT22;16845;48.670;9.000;2023-04-01T14:25:10;10.40;99.90
30001;DHT22;16845;48.670;9.000;2023-04-01T14:27:53;10.40;99.90
30001;DHT22;16845;48.670;9.000;2023-04-01T14:30:38;10.20;99.90
30001;DHT22;16845;48.670;9.000;2023-04-01T14:33:22;10.20;99.90
30001;DHT22;16845;48.670;9.000;2023-04-01T14:36:04;10.30;99.90
30001;DHT22;16845;48.670;9.000;2023-04-01T14:38:46;10.40;99.90
30001;DHT22;16845;48.670;9.000;2023-04-01T14:41:21;10.60;99.90
30001;DHT22;16845;48.670;9.000;2023-04-01T14:44:11;10.70;99.90
30001;DHT22;16845;48.670;9.000;2023-04-01T14:49:53;10.60;99.90
30001;DHT22;16845;48.670;9.000;2023-04-01T14:52:26;10.60;99.90
30001;DHT22;16845;48.670;9.000;2023-04-01T14:54:56;10.70;99.90
30001;DHT22;16845;48.670;9.000;2023-04-01T14:57:27;11.10;99.90
30001;DHT22;16845;48.670;9.000;2023-04-01T15:00:00;11.10;99.90
30001;DHT22;16845;48.670;9.000;2023-04-01T15:02:40;11.00;99.90
30001;DHT22;16845;48.670;9.000;2023-04-01T15:05:16;10.80;99.90
30001;DHT22;16845;48.670;9.000;2023-04-01T15:08:06;10.90;99.90
30001;DHT22;16845;48.670;9.000;2023-04-01T15:10:52;10.90;99.90
30001;DHT22;16845;48.670;9.000;2023-04-01T15:13:35;10.90;99.90
30001;DHT22;16845;48.670;9.000;2023-04-01T15:16:11;11.00;99.90
30001;DHT22;16845;48.670;9.000;2023-04-01T15:18:50;11.10;99.90
30001;DHT22;16845;48.670;9.000;2023-04-01T15:21:39;11.10;99.90
30001;DHT22;16845;48.670;9.000;2023-04-01T15:24:16;11.00;99.90
30001;DHT22;16845;48.670;9.000;2023-04-01T15:26:59;10.90;99.90
30001;DHT22;16845;48.670;9.000;2023-04-01T15:29:51;10.90;99.90
30001;DHT22;16845;48.670;9.000;2023-04-01T15:32:38;10.80;99.90
30001;DHT22;16845;48.670;9.000;2023-04-01T15:35:16;10.80;99.90
30001;DHT22;16845;48.670;9.000;2023-04-01T15:37:52;10.80;99.90
30001;DHT22;16845;48.670;9.000;2023-04-01T15:40:26;10.60;99.90
30001;DHT22;16845;48.670;9.000;2023-04-01T15:43:02;10.60;99.90
30001;DHT22;16845;48.670;9.000;2023-04-01T15:45:39;10.50;99.90
30001;DHT22;16845;48.670;9.000;2023-04-01T15:48:40;10.40;99.90
30001;DHT22;16845;48.670;9.000;2023-04-01T15:51:20;10.30;99.90
30001;DHT22;16845;48.670;9.000;2023-04-01T15:54:14;10.20;99.90
30001;DHT22;16845;48.670;9.000;2023-04-01T15:56:53;10.10;99.90
30001;DHT22;16845;48.670;9.000;2023-04-01T15:59:47;10.10;99.90
30001;DHT22;16845;48.670;9.000;2023-04-01T16:02:22;10.00;99.90
30001;DHT22;16845;48.670;9.000;2023-04-01T16:04:59;9.90;99.90
30001;DHT22;16845;48.670;9.000;2023-04-01T16:07:43;9.70;99.90
30001;DHT22;16845;48.670;9.000;2023-04-01T16:10:38;9.70;99.90
30001;DHT22;16845;48.670;9.000;2023-04-01T16:13:23;9.60;99.90
30001;DHT22;16845;48.670;9.000;2023-04-01T16:16:00;9.70;99.90
30001;DHT22;16845;48.670;9.000;2023-04-01T16:18:57;9.80;99.90
30001;DHT22;16845;48.670;9.000;2023-04-01T16:21:37;9.80;99.90
30001;DHT22;16845;48.670;9.000;2023-04-01T16:24:10;9.90;99.90
30001;DHT22;16845;48.670;9.000;2023-04-01T16:26:47;10.00;99.90
30001;DHT22;16845;48.670;9.000;2023-04-01T16:29:22;10.10;99.90
30001;DHT22;16845;48.670;9.000;2023-04-01T16:31:54;10.10;99.90
30001;DHT22;16845;48.670;9.000;2023-04-01T16:34:27;10.10;99.90
30001;DHT22;16845;48.670;9.000;2023-04-01T16:37:05;10.10;99.90
30001;DHT22;16845;48.670;9.000;2023-04-01T16:39:41;10.00;99.90
30001;DHT22;16845;48.670;9.000;2023-04-01T16:42:16;10.00;99.90
30001;DHT22;16845;48.670;9.000;2023-04-01T16:44:50;10.00;99.90
30001;DHT22;16845;48.670;9.000;2023-04-01T16:47:20;10.10;99.90
30001;DHT22;16845;48.670;9.000;2023-04-01T16:49:52;10.00;99.90
30001;DHT22;16845;48.670;9.000;2023-04-01T16:52:40;9.90;99.90
30001;DHT22;16845;48.670;9.000;2023-04-01T16:55:16;9.90;99.90
30001;DHT22;16845;48.670;9.000;2023-04-01T16:57:50;9.80;99.90
30001;DHT22;16845;48.670;9.000;2023-04-01T17:00:25;9.70;99.90
30001;DHT22;16845;48.670;9.000;2023-04-01T17:03:02;9.60;99.90
30001;DHT22;16845;48.670;9.000;2023-04-01T17:05:41;9.60;99.90
30001;DHT22;16845;48.670;9.000;2023-04-01T17:08:17;9.50;99.90
30001;DHT22;16845;48.670;9.000;2023-04-01T17:10:49;9.50;99.90
30001;DHT22;16845;48.670;9.000;2023-04-01T17:13:31;9.50;99.90
30001;DHT22;16845;48.670;9.000;2023-04-01T17:16:14;9.40;99.90
30001;DHT22;16845;48.670;9.000;2023-04-01T17:18:50;9.40;99.90
30001;DHT22;16845;48.670;9.000;2023-04-01T17:21:25;9.40;99.90
30001;DHT22;16845;48.670;9.000;2023-04-01T17:24:03;9.40;99.90
30001;DHT22;16845;48.670;9.000;2023-04-01T17:26:37;9.40;99.90
30001;DHT22;16845;48.670;9.000;2023-04-01T17:29:13;9.40;99.90
30001;DHT22;16845;48.670;9.000;2023-04-01T17:31:50;9.30;99.90
30001;DHT22;16845;48.670;9.000;2023-04-01T17:34:39;9.30;99.90
30001;DHT22;16845;48.670;9.000;2023-04-01T17:37:23;9.30;99.90
30001;DHT22;16845;48.670;9.000;2023-04-01T17:40:06;9.20;99.90
30001;DHT22;16845;48.670;9.000;2023-04-01T17:42:41;9.10;99.90
30001;DHT22;16845;48.670;9.000;2023-04-01T17:45:21;9.10;99.90
30001;DHT22;16845;48.670;9.000;2023-04-01T17:47:58;9.10;99.90
30001;DHT22;16845;48.670;9.000;2023-04-01T17:50:35;9.10;99.90
30001;DHT22;16845;48.670;9.000;2023-04-01T17:53:19;9.10;99.90
30001;DHT22;16845;48.670;9.000;2023-04-01T17:56:04;9.10;99.90
30001;DHT22;16845;48.670;9.000;2023-04-01T17:58:44;9.20;99.90